Terminal Aerodrome Forecast
Issued by NWS Missoula, MT

Home | Current Version | Previous Version | Text Only | Print | Product List | Glossary On
Versions: 1 2 3 4 5 6 7 8 9 10 11 12 13 14 15 16 17 18
000
FTUS45 KMSO 221100
TAFGPI
TAF
KGPI 221125Z 2212/2312 VRB05KT P6SM VCSH BKN120
     FM221700 03005KT P6SM -SHRA BKN100
     FM222100 18012KT P6SM BKN090=

USA.gov is the U.S. government's official web portal to all federal, state and local government web resources and services.